Αρχική σελίδα
METAR-TAF:

METAR-TAF

Αεροδρόμια :

Kwajalein, Νήσοι Μάρσαλ

γεωγραφικό πλάτος: 08-43N, γεωγραφικό μήκος: 167-44E, υψόμετρο: 3 μ

Παρών καιρός

Η αναφορά έγινε 28 λεπτά πριν, στις 01:20 UTC
Άνεμος 14 kt από Α/BA
Θερμοκρασία 31°C
Υγρασία 71%
Πίεση 1012 hPa
Ορατότητα: 16.1 χλμ
Διάσπαρτα νέφη σε ύψος 2500 πόδια

METAR: PKWA 150120Z COR 06014KT 10SM SCT025 31/25 A2987 RMK AO2 T03060245

Χρόνος: 13:48 (01:48 UTC)

Πρόγνωση Καιρού

Η αναφορά έγινε 2 ώρες και 4 λεπτά πριν, στις 23:44 UTC
Η πρόγνωση ισχύει από τις 15 στις 00 UTC έως τις 15 στις 24 UTC
Άνεμος 16 kt από Α/BA
Ορατότητα: 10 χλμ
Διάσπαρτα νέφη σε ύψος 2000 πόδια
Διάσπαρτα νέφη σε ύψος 3000 πόδια
Όμβροι σε κοντινή απόσταση,

TAF: PKWA 142344Z 1500/1524 06016KT P6SM VCSH SCT020 SCT030

Μετεωρολογικές αναφορές και προγνώσεις για περισσότερα από 4000 αεροδρόμια (δελτία METAR και TAF).

Οι διαθέσιμοι σταθμοί απεικονίζονται στο χάρτη με κίτρινες και κόκκινες κουκκίδες.

Μετακινήστε το ποντίκι πάνω από τις κουκκίδες για να δείτε το όνομα του σταθμού.

Στη συνέχεια, κάντε κλικ για να δείτε τις μετεωρολογικές αναφορές και τις προγνώσεις καιρού.

Για να αλλάξετε το χάρτη: κάντε κλικ στα πράσινα κουμπιά με τον μαύρο σταυρό για να ζουμάρετε, στο πράσινο κουμπί με την παύλα για να αφαιρέσετε το ζουμ ή στα πράσινα βέλη για να αντιπαραβάλλετε χάρτες.


METAR-TAF: